Time;durP1;ratioP1;P1;durP2;ratioP2;P2;SDS_P1;SDS_P2;PMS_P1;PMS_P2;Temp;Humidity;BMP_temperature;BMP_pressure;BME280_temperature;BME280_humidity;BME280_pressure;Samples;Min_cycle;Max_cycle;Signal;HPM_P1;HPM_P2
2022/12/18 00:01:19;;;;;;;1.90;1.80;;;-4.90;99.90;-5.10;97910.00;;;;4981360;28;21023;-66
2022/12/18 00:04:16;;;;;;;3.00;2.80;;;-5.10;99.90;-4.80;97922.00;;;;4981588;28;20466;-65
2022/12/18 00:07:05;;;;;;;3.57;2.27;;;-5.10;99.90;-4.50;97924.00;;;;4989608;28;20423;-64
2022/12/18 00:09:53;;;;;;;2.43;2.20;;;-5.00;99.90;-4.20;97932.00;;;;4980903;28;20485;-64
2022/12/18 00:12:42;;;;;;;4.13;2.60;;;-4.80;99.90;-4.50;97933.00;;;;4988953;28;20414;-64
2022/12/18 00:15:34;;;;;;;2.93;2.07;;;-4.80;99.90;-4.70;97933.00;;;;4992498;28;20959;-63
2022/12/18 00:18:23;;;;;;;1.63;1.60;;;-4.90;99.90;-4.90;97929.00;;;;4974236;28;20423;-68
2022/12/18 00:21:13;;;;;;;2.67;1.47;;;-5.00;99.90;-5.30;97919.00;;;;4979918;28;20442;-67
2022/12/18 00:24:02;;;;;;;1.17;1.10;;;-5.20;99.90;-5.50;97929.00;;;;4984732;28;20414;-68
2022/12/18 00:26:51;;;;;;;1.17;1.07;;;-5.30;99.90;-5.90;97930.00;;;;4988143;28;21254;-70
2022/12/18 00:29:42;;;;;;;2.40;2.20;;;-5.50;99.90;-5.50;97944.00;;;;4988830;28;20434;-64
2022/12/18 00:32:34;;;;;;;3.93;2.70;;;-5.60;99.90;-4.90;97963.00;;;;4982738;28;21072;-65
2022/12/18 00:35:23;;;;;;;2.27;2.17;;;-5.50;99.90;-4.70;97961.00;;;;4983848;28;20430;-66
2022/12/18 00:38:11;;;;;;;2.77;2.57;;;-4.60;99.90;-4.50;97968.00;;;;4976874;28;20946;-65
2022/12/18 00:41:00;;;;;;;3.20;2.90;;;-5.30;99.90;-4.50;97967.00;;;;4991955;28;20531;-65
2022/12/18 00:43:48;;;;;;;6.43;4.00;;;-5.20;99.90;-5.00;97961.00;;;;5013800;28;20503;-64
2022/12/18 00:46:37;;;;;;;1.03;1.00;;;-5.20;99.90;-5.30;97966.00;;;;4988429;28;20507;-65
2022/12/18 00:49:27;;;;;;;4.80;2.37;;;-5.40;99.90;-5.50;97967.00;;;;4978827;28;20528;-66
2022/12/18 00:52:16;;;;;;;2.67;2.10;;;-5.40;99.90;-5.40;97975.00;;;;4988927;28;20458;-65
2022/12/18 00:55:05;;;;;;;2.97;2.37;;;-5.40;99.90;-5.10;97977.00;;;;4989658;28;20475;-64
2022/12/18 00:57:54;;;;;;;4.03;2.50;;;-5.60;99.90;-5.40;97967.00;;;;4992071;28;20476;-65
2022/12/18 01:00:44;;;;;;;0.80;0.80;;;-5.60;99.90;-5.80;97969.00;;;;4991727;28;20451;-65
2022/12/18 01:03:32;;;;;;;1.57;1.47;;;-5.60;99.90;-5.60;97981.00;;;;4988961;28;20438;-65
2022/12/18 01:06:23;;;;;;;1.93;1.83;;;-5.80;99.90;-5.30;97986.00;;;;4983376;28;21067;-64
2022/12/18 01:09:11;;;;;;;2.67;2.40;;;-5.70;99.90;-5.30;97974.00;;;;4980812;28;20450;-66
2022/12/18 01:12:00;;;;;;;2.67;2.47;;;-5.90;99.90;-4.80;97983.00;;;;4978300;28;20933;-64
2022/12/18 01:14:49;;;;;;;3.53;2.27;;;-5.40;99.90;-4.70;97994.00;;;;4988684;28;20471;-67
2022/12/18 01:17:38;;;;;;;1.83;1.70;;;-5.30;99.90;-4.80;98016.00;;;;4978606;28;20443;-67
2022/12/18 01:20:26;;;;;;;2.23;2.13;;;-5.40;99.90;-4.80;98016.00;;;;4989589;28;20443;-67
2022/12/18 01:23:16;;;;;;;1.90;1.80;;;-5.40;99.90;-5.30;98008.00;;;;4983469;28;20856;-66
2022/12/18 01:26:07;;;;;;;4.07;3.47;;;-5.50;99.90;-5.60;98008.00;;;;4986346;28;20497;-64
2022/12/18 01:28:56;;;;;;;5.80;2.33;;;-5.40;99.90;-5.00;98018.00;;;;4984897;28;20521;-65
2022/12/18 01:31:45;;;;;;;2.47;2.27;;;-5.80;99.90;-5.00;98010.00;;;;4978480;28;20531;-64
2022/12/18 01:34:34;;;;;;;1.93;1.60;;;-5.50;99.90;-4.80;98017.00;;;;4986640;28;20434;-64
2022/12/18 01:37:22;;;;;;;3.40;2.50;;;-5.30;99.90;-4.90;98017.00;;;;4980969;28;20869;-64
2022/12/18 01:40:13;;;;;;;2.60;2.20;;;-5.20;99.90;-5.20;98004.00;;;;4978910;28;20447;-64
2022/12/18 01:43:02;;;;;;;2.37;1.87;;;-5.50;99.90;-5.50;98015.00;;;;5002259;28;20503;-64
2022/12/18 01:45:50;;;;;;;1.40;1.30;;;-5.50;99.90;-5.70;98011.00;;;;4985038;28;20515;-64
2022/12/18 01:48:40;;;;;;;2.07;1.97;;;-5.60;99.90;-5.70;98024.00;;;;5013316;28;20422;-65
2022/12/18 01:51:31;;;;;;;1.87;1.77;;;-5.80;99.90;-5.70;98018.00;;;;4977719;28;20453;-64
2022/12/18 01:54:19;;;;;;;1.20;1.20;;;-6.00;99.90;-6.00;98033.00;;;;4987669;28;20430;-66
2022/12/18 01:57:10;;;;;;;0.97;0.97;;;-6.20;99.90;-6.20;98033.00;;;;4985909;28;20543;-69
2022/12/18 02:00:03;;;;;;;1.80;1.00;;;-5.90;99.90;-6.30;98027.00;;;;4990685;28;20456;-68
2022/12/18 02:02:53;;;;;;;2.20;2.10;;;-6.10;99.90;-6.00;98032.00;;;;4988824;28;20430;-64
2022/12/18 02:05:49;;;;;;;1.00;1.00;;;-6.20;99.90;-5.60;98037.00;;;;4982543;28;20458;-65
2022/12/18 02:08:46;;;;;;;2.10;1.87;;;-6.10;99.90;-5.70;98043.00;;;;4986537;28;20975;-63
2022/12/18 02:11:45;;;;;;;2.37;1.97;;;-5.80;99.90;-5.80;98050.00;;;;4987489;28;20434;-65
2022/12/18 02:14:45;;;;;;;2.70;1.53;;;-6.10;99.90;-6.00;98054.00;;;;4984850;28;20565;-68
2022/12/18 02:17:39;;;;;;;3.35;2.17;;;-6.10;99.90;-6.10;98054.00;;;;4980056;28;20430;-64
2022/12/18 02:20:36;;;;;;;1.97;1.87;;;-6.30;99.90;-5.90;98048.00;;;;4980789;28;20229;-66
2022/12/18 02:23:46;;;;;;;1.47;1.37;;;-6.00;99.90;-6.00;98046.00;;;;4982734;28;20445;-66
2022/12/18 02:26:41;;;;;;;1.10;1.10;;;-6.10;99.90;-6.40;98039.00;;;;4977787;28;20495;-69
2022/12/18 02:29:36;;;;;;;2.73;2.50;;;-6.40;99.90;-5.90;98042.00;;;;4983981;28;20442;-66
2022/12/18 02:32:29;;;;;;;2.93;2.50;;;-6.30;99.90;-5.50;98055.00;;;;4977521;28;20435;-66
2022/12/18 02:35:23;;;;;;;2.13;1.67;;;-6.20;99.90;-5.80;98033.00;;;;4986665;28;20953;-67
2022/12/18 02:38:13;;;;;;;2.63;2.43;;;-6.10;99.90;-5.70;98033.00;;;;4977726;28;20449;-65
2022/12/18 02:41:03;;;;;;;2.50;2.30;;;-6.10;99.90;-5.90;98031.00;;;;4989364;28;20457;-65
2022/12/18 02:44:01;;;;;;;2.65;1.55;;;-6.00;99.90;-6.20;98039.00;;;;4979416;28;20434;-65
2022/12/18 02:46:53;;;;;;;1.00;1.00;;;-6.10;99.90;-6.60;98042.00;;;;4969586;28;20320;-69
2022/12/18 02:49:52;;;;;;;2.47;2.27;;;-6.20;99.90;-6.20;98053.00;;;;4978387;28;20311;-64
2022/12/18 02:52:54;;;;;;;2.17;2.08;;;-6.30;99.90;-6.10;98062.00;;;;4986085;28;20465;-65
2022/12/18 02:56:00;;;;;;;3.83;3.33;;;-6.40;99.90;-5.80;98060.00;;;;4988678;28;20210;-64
2022/12/18 02:58:59;;;;;;;3.90;2.40;;;-6.30;99.90;-5.60;98072.00;;;;4987934;28;20268;-65
2022/12/18 03:01:57;;;;;;;3.33;2.83;;;-6.30;99.90;-5.70;98074.00;;;;4982804;28;20909;-66
2022/12/18 03:04:55;;;;;;;1.55;1.50;;;-6.10;99.90;-5.80;98078.00;;;;4980431;28;20295;-66
2022/12/18 03:07:51;;;;;;;1.97;1.87;;;-6.20;99.90;-5.40;98075.00;;;;4983922;28;20285;-65
2022/12/18 03:10:47;;;;;;;2.17;2.07;;;-5.90;99.90;-5.20;98086.00;;;;5017275;28;20457;-64
2022/12/18 03:13:41;;;;;;;1.70;1.60;;;-5.90;99.90;-5.00;98086.00;;;;4981369;28;20460;-65
2022/12/18 03:16:34;;;;;;;2.73;2.47;;;-5.80;99.90;-5.30;98079.00;;;;4989007;28;20422;-67
2022/12/18 03:19:27;;;;;;;4.07;2.03;;;;;-6.10;98061.00;;;;4988272;28;20461;-65
2022/12/18 03:22:18;;;;;;;2.00;1.90;;;-5.90;99.90;-5.90;98060.00;;;;4981248;28;20829;-64
2022/12/18 03:25:12;;;;;;;2.57;2.37;;;-6.00;99.90;-6.40;98067.00;;;;4979745;28;20423;-66
2022/12/18 03:28:03;;;;;;;6.87;2.57;;;-6.10;99.90;-6.70;98066.00;;;;4980180;28;20793;-65
2022/12/18 03:30:58;;;;;;;1.10;1.00;;;-6.20;99.90;-6.60;98072.00;;;;4988837;28;21034;-66
2022/12/18 03:33:54;;;;;;;1.67;1.58;;;-6.40;99.90;-6.60;98072.00;;;;4989647;28;20434;-65
2022/12/18 03:36:42;;;;;;;1.52;1.42;;;-6.50;99.90;-6.80;98065.00;;;;4980131;28;20846;-64
2022/12/18 03:39:31;;;;;;;1.50;1.40;;;-6.50;99.90;-6.70;98071.00;;;;4993363;28;20223;-64
2022/12/18 03:42:28;;;;;;;1.52;1.42;;;-6.60;99.90;-6.40;98082.00;;;;4989925;28;20207;-68
2022/12/18 03:45:25;;;;;;;3.42;2.45;;;-6.50;99.90;-6.40;98075.00;;;;4982709;28;20721;-64
2022/12/18 03:48:20;;;;;;;2.27;1.83;;;-6.50;99.90;-6.10;98085.00;;;;4980041;28;20696;-67
2022/12/18 03:51:22;;;;;;;1.97;1.80;;;-6.40;99.90;-6.10;98091.00;;;;4977114;28;20960;-63
2022/12/18 03:54:12;;;;;;;3.27;2.80;;;-6.40;99.90;-5.80;98105.00;;;;4990416;28;20430;-64
2022/12/18 03:57:08;;;;;;;3.27;1.77;;;-6.30;99.90;-5.60;98100.00;;;;4988739;28;20438;-64
2022/12/18 04:00:06;;;;;;;2.77;2.57;;;-6.20;99.90;-5.60;98105.00;;;;4990596;28;20470;-65
2022/12/18 04:02:58;;;;;;;3.87;2.23;;;-6.10;99.90;-5.70;98102.00;;;;4990443;28;20499;-65
2022/12/18 04:05:49;;;;;;;1.87;1.07;;;-6.10;99.90;-6.10;98104.00;;;;4989120;28;20510;-66
2022/12/18 04:08:40;;;;;;;2.50;2.30;;;-6.10;99.90;-6.20;98091.00;;;;4981659;28;20430;-65
2022/12/18 04:11:29;;;;;;;2.97;2.77;;;-6.20;99.90;-5.90;98096.00;;;;4984387;28;20442;-65
2022/12/18 04:14:17;;;;;;;3.93;2.90;;;-6.20;99.90;-5.80;98110.00;;;;4982831;28;20422;-65
2022/12/18 04:17:06;;;;;;;3.27;3.03;;;-6.20;99.90;-5.80;98102.00;;;;4992649;28;20860;-65
2022/12/18 04:19:55;;;;;;;1.27;1.17;;;-7.20;99.90;-6.10;98106.00;;;;4989659;28;20445;-65
2022/12/18 04:22:44;;;;;;;2.07;1.47;;;-6.20;99.90;-6.60;98115.00;;;;4989927;28;20879;-68
2022/12/18 04:25:34;;;;;;;2.47;2.37;;;-6.40;99.90;-6.60;98108.00;;;;4987428;28;20542;-66
2022/12/18 04:28:23;;;;;;;3.33;2.37;;;-4.90;99.90;-6.40;98108.00;;;;4987224;28;20480;-66
2022/12/18 04:31:12;;;;;;;0.60;0.60;;;-6.50;99.90;-6.50;98114.00;;;;4989368;28;20430;-66
2022/12/18 04:34:02;;;;;;;1.90;1.77;;;-6.50;99.90;-6.40;98128.00;;;;4989559;28;20449;-66
2022/12/18 04:36:51;;;;;;;2.97;2.45;;;-6.50;99.90;-5.90;98127.00;;;;4989936;28;20437;-67
2022/12/18 04:39:39;;;;;;;1.83;1.70;;;-6.50;99.90;-6.40;98132.00;;;;4987903;28;20705;-68
2022/12/18 04:42:29;;;;;;;1.93;1.10;;;-6.50;99.90;-6.60;98140.00;;;;4986335;28;20488;-68
2022/12/18 04:45:18;;;;;;;4.00;3.63;;;-6.50;99.90;-6.60;98130.00;;;;4987836;28;20434;-67
2022/12/18 04:48:07;;;;;;;2.50;2.30;;;-6.60;99.90;-6.30;98141.00;;;;4982063;28;20830;-67
2022/12/18 04:50:55;;;;;;;2.97;2.77;;;-6.60;99.90;-6.40;98138.00;;;;4988027;28;20458;-66
2022/12/18 04:53:44;;;;;;;0.90;0.90;;;-6.50;99.90;-6.60;98135.00;;;;4989151;28;20418;-69
2022/12/18 04:56:33;;;;;;;1.95;1.83;;;-6.60;99.90;-7.00;98134.00;;;;4991885;28;20466;-69
2022/12/18 04:59:23;;;;;;;1.00;1.00;;;-6.70;99.90;-6.90;98131.00;;;;4989963;28;20229;-71
2022/12/18 05:02:12;;;;;;;2.60;2.40;;;-6.80;99.90;-6.80;98127.00;;;;4985322;28;20585;-67
2022/12/18 05:05:01;;;;;;;1.83;1.48;;;-6.70;99.90;-6.60;98147.00;;;;4989121;28;20419;-66
2022/12/18 05:07:49;;;;;;;2.30;2.20;;;-6.70;99.90;-6.70;98156.00;;;;4988467;28;20261;-70
2022/12/18 05:10:38;;;;;;;2.45;2.35;;;-6.70;99.90;-7.00;98141.00;;;;4989509;28;20285;-69
2022/12/18 05:13:27;;;;;;;2.42;2.22;;;-6.80;99.90;-6.80;98147.00;;;;4987192;28;20370;-69
2022/12/18 05:16:17;;;;;;;1.07;1.07;;;-6.80;99.90;-6.70;98150.00;;;;4989511;28;20234;-70
2022/12/18 05:19:06;;;;;;;2.25;2.15;;;-6.80;99.90;-6.60;98164.00;;;;4983375;28;20438;-71
2022/12/18 05:21:54;;;;;;;0.90;0.90;;;-6.70;99.90;-7.10;98151.00;;;;4988335;28;20256;-72
2022/12/18 05:24:43;;;;;;;2.57;2.37;;;-6.80;99.90;-6.60;98167.00;;;;4989060;28;20206;-70
2022/12/18 05:27:32;;;;;;;1.73;0.90;;;-6.80;99.90;-6.60;98167.00;;;;5017364;28;21015;-69
2022/12/18 05:30:20;;;;;;;2.65;2.45;;;-6.70;99.90;-6.10;98181.00;;;;4987501;28;20918;-71
2022/12/18 05:33:10;;;;;;;4.10;3.43;;;-6.60;99.90;-6.20;98183.00;;;;4979773;28;20216;-69
2022/12/18 05:36:05;;;;;;;1.30;1.30;;;-6.50;99.90;-6.50;98173.00;;;;4981209;28;20478;-67
2022/12/18 05:38:54;;;;;;;2.37;2.17;;;-6.50;99.90;-6.10;98190.00;;;;4987739;28;20207;-71
2022/12/18 05:41:42;;;;;;;1.25;1.25;;;-6.40;99.90;-6.10;98185.00;;;;4988264;28;20440;-69
2022/12/18 05:44:31;;;;;;;6.60;3.87;;;-6.30;99.90;-6.30;98184.00;;;;4982221;28;20685;-66
2022/12/18 05:47:20;;;;;;;1.63;1.53;;;-6.40;99.90;-6.60;98185.00;;;;4983449;28;20972;-67
2022/12/18 05:50:10;;;;;;;2.57;2.37;;;-6.40;99.90;-6.80;98186.00;;;;4987802;28;21000;-68
2022/12/18 05:52:59;;;;;;;2.73;2.53;;;-6.60;99.90;-6.60;98187.00;;;;4987808;28;20439;-71
2022/12/18 05:55:48;;;;;;;1.57;1.47;;;-6.60;99.90;-6.80;98200.00;;;;4987899;28;20423;-69
2022/12/18 05:58:37;;;;;;;1.87;1.47;;;-6.70;99.90;-7.00;98197.00;;;;4981374;28;21000;-69
2022/12/18 06:01:28;;;;;;;2.00;1.90;;;-6.80;99.90;-7.00;98193.00;;;;4983478;28;20468;-70
2022/12/18 06:04:16;;;;;;;0.73;0.73;;;-6.90;99.90;-7.20;98202.00;;;;4986037;28;20214;-72
2022/12/18 06:07:07;;;;;;;4.43;4.07;;;-6.90;99.90;-6.80;98206.00;;;;4982975;28;20224;-67
2022/12/18 06:09:55;;;;;;;1.27;1.27;;;-6.90;99.90;-7.10;98192.00;;;;4984319;28;20258;-72
2022/12/18 06:12:44;;;;;;;1.40;1.30;;;-6.90;99.90;-7.10;98203.00;;;;4981839;28;20430;-71
2022/12/18 06:15:33;;;;;;;2.85;2.60;;;-7.00;99.90;-6.90;98205.00;;;;4987264;28;20199;-69
2022/12/18 06:18:22;;;;;;;3.43;2.83;;;-6.90;99.90;-6.70;98215.00;;;;4986975;28;20195;-68
2022/12/18 06:21:10;;;;;;;1.37;1.37;;;-6.80;99.90;-6.40;98220.00;;;;4988593;28;20454;-69
2022/12/18 06:24:01;;;;;;;3.72;2.85;;;-6.70;99.90;-6.20;98235.00;;;;4986225;28;20434;-67
2022/12/18 06:26:50;;;;;;;3.73;2.63;;;-6.60;99.90;-6.10;98228.00;;;;4986295;28;20207;-66
2022/12/18 06:29:38;;;;;;;2.80;2.28;;;-6.50;99.90;-6.00;98239.00;;;;4974608;28;20459;-70
2022/12/18 06:32:27;;;;;;;5.17;3.00;;;-6.50;99.90;-6.00;98238.00;;;;4979490;28;20219;-69
2022/12/18 06:35:16;;;;;;;4.83;3.63;;;-6.50;99.90;-6.20;98250.00;;;;4987689;28;21062;-67
2022/12/18 06:38:05;;;;;;;3.53;2.60;;;-6.40;99.90;-6.50;98252.00;;;;4981052;28;20428;-69
2022/12/18 06:40:55;;;;;;;6.37;4.63;;;-6.50;99.90;-6.70;98254.00;;;;4981018;28;20466;-67
2022/12/18 06:43:44;;;;;;;20.03;12.07;;;-6.60;99.90;-6.50;98240.00;;;;4979161;28;20446;-67
2022/12/18 06:46:33;;;;;;;8.30;6.67;;;-6.60;99.90;-6.40;98260.00;;;;4984030;28;20439;-67
2022/12/18 06:49:21;;;;;;;10.20;6.03;;;-6.60;99.90;-6.20;98254.00;;;;4975358;28;20481;-67
2022/12/18 06:52:12;;;;;;;1.30;1.30;;;-6.50;99.90;-6.20;98274.00;;;;4986613;28;20454;-67
2022/12/18 06:55:01;;;;;;;9.97;2.60;;;-6.50;99.90;-6.40;98274.00;;;;4981241;28;20502;-67
2022/12/18 06:57:51;;;;;;;3.37;1.73;;;-6.50;99.90;-6.80;98268.00;;;;4981985;28;20857;-69
2022/12/18 07:00:40;;;;;;;1.77;1.67;;;-6.70;99.90;-6.60;98264.00;;;;4981901;28;20442;-70
2022/12/18 07:03:29;;;;;;;1.87;1.77;;;-6.70;99.90;-6.90;98268.00;;;;4987293;28;20431;-69
2022/12/18 07:06:20;;;;;;;1.53;1.43;;;-6.70;99.90;-7.10;98259.00;;;;4978440;28;20430;-69
2022/12/18 07:09:09;;;;;;;1.80;1.57;;;-6.90;99.90;-7.30;98262.00;;;;4986040;28;20474;-72
2022/12/18 07:11:57;;;;;;;3.90;1.48;;;-4.90;99.90;-6.90;98291.00;;;;4985382;28;20473;-69
2022/12/18 07:14:47;;;;;;;4.40;2.47;;;-6.90;99.90;-6.80;98292.00;;;;4982318;28;20288;-71
2022/12/18 07:17:36;;;;;;;1.75;1.65;;;-6.90;99.90;-7.10;98296.00;;;;4981247;28;20479;-69
2022/12/18 07:20:25;;;;;;;2.50;2.30;;;-6.90;99.90;-7.10;98284.00;;;;4982540;28;20234;-68
2022/12/18 07:23:14;;;;;;;3.63;3.33;;;-6.90;99.90;-6.60;98294.00;;;;4979770;28;20486;-70
2022/12/18 07:26:04;;;;;;;4.50;3.30;;;-6.80;99.90;-6.30;98303.00;;;;4983004;28;20926;-70
2022/12/18 07:28:57;;;;;;;6.83;3.63;;;-6.70;99.90;-6.60;98298.00;;;;4983995;28;20215;-68
2022/12/18 07:31:47;;;;;;;1.43;1.40;;;-6.70;99.90;-6.80;98315.00;;;;4981870;28;21045;-71
2022/12/18 07:34:36;;;;;;;2.60;2.05;;;-6.70;99.90;-6.80;98319.00;;;;4978522;28;20446;-69
2022/12/18 07:37:24;;;;;;;3.67;3.27;;;-6.70;99.90;-6.60;98319.00;;;;4983208;28;20207;-67
2022/12/18 07:40:14;;;;;;;3.53;3.23;;;-6.70;99.90;-6.60;98318.00;;;;4983595;28;20446;-68
2022/12/18 07:43:02;;;;;;;2.33;2.00;;;-6.70;99.90;-6.70;98317.00;;;;4973879;28;20849;-68
2022/12/18 07:45:51;;;;;;;2.20;2.07;;;-6.60;99.90;-6.40;98327.00;;;;4983809;28;20434;-68
2022/12/18 07:48:42;;;;;;;3.03;2.77;;;-6.60;99.90;-6.30;98340.00;;;;4977919;28;20546;-70
2022/12/18 07:51:30;;;;;;;1.00;1.00;;;-6.60;99.90;-6.60;98327.00;;;;4986379;28;20430;-69
2022/12/18 07:54:19;;;;;;;2.10;1.73;;;-6.50;99.90;-6.40;98321.00;;;;4985460;28;20434;-70
2022/12/18 07:57:10;;;;;;;4.40;4.07;;;-6.50;99.90;-6.50;98335.00;;;;4986473;28;20466;-68
2022/12/18 08:00:12;;;;;;;3.50;3.20;;;-6.40;99.90;-6.40;98327.00;;;;4984272;28;20587;-69
2022/12/18 08:03:01;;;;;;;2.93;2.73;;;-6.40;99.90;-6.30;98332.00;;;;4971571;28;20450;-69
2022/12/18 08:05:54;;;;;;;3.43;3.10;;;-6.40;99.90;-6.30;98335.00;;;;5004858;28;20796;-68
2022/12/18 08:08:42;;;;;;;5.67;3.70;;;-6.40;99.90;-6.60;98324.00;;;;4974134;28;20474;-67
2022/12/18 08:11:31;;;;;;;4.70;2.73;;;-6.40;99.90;-6.30;98338.00;;;;4985032;28;20423;-69
2022/12/18 08:14:20;;;;;;;3.60;3.27;;;-6.40;99.90;-6.40;98338.00;;;;4984712;28;20446;-68
2022/12/18 08:17:09;;;;;;;2.37;2.27;;;-6.40;99.90;-6.60;98327.00;;;;4984676;28;20434;-69
2022/12/18 08:19:57;;;;;;;3.95;3.42;;;-6.40;99.90;-6.40;98335.00;;;;4990629;28;20457;-70
2022/12/18 08:22:47;;;;;;;3.83;3.05;;;-6.40;99.90;-6.50;98328.00;;;;4987139;28;20240;-71
2022/12/18 08:25:36;;;;;;;5.70;4.30;;;-6.40;99.90;-5.90;98317.00;;;;4983284;28;20222;-67
2022/12/18 08:28:25;;;;;;;4.50;4.10;;;-6.30;99.90;-5.80;98301.00;;;;4977758;28;20477;-67
2022/12/18 08:31:13;;;;;;;7.00;4.40;;;-6.10;99.90;-5.60;98312.00;;;;4978065;28;20423;-70
2022/12/18 08:34:02;;;;;;;6.20;3.47;;;-6.00;99.90;-5.70;98325.00;;;;4976284;28;20426;-68
2022/12/18 08:36:51;;;;;;;6.10;4.90;;;-5.70;99.90;-5.90;98318.00;;;;4983121;28;20493;-66
2022/12/18 08:39:41;;;;;;;9.30;5.07;;;-5.90;99.90;-5.60;98338.00;;;;4982915;28;20891;-68
2022/12/18 08:45:36;;;;;;;3.00;2.70;;;-5.80;99.90;-5.40;98333.00;;;;4983545;28;20495;-69
2022/12/18 08:48:25;;;;;;;3.00;2.63;;;-5.80;99.90;-5.20;98346.00;;;;4985071;28;20481;-68
2022/12/18 08:51:16;;;;;;;4.70;4.33;;;-5.70;99.90;-5.00;98335.00;;;;4981554;28;20440;-69
2022/12/18 08:54:06;;;;;;;3.63;2.80;;;-5.60;99.90;-5.00;98330.00;;;;4984682;28;20458;-69
2022/12/18 08:56:56;;;;;;;4.33;4.03;;;-5.40;99.90;-5.30;98329.00;;;;5000162;28;20435;-68
2022/12/18 08:59:45;;;;;;;4.87;4.37;;;-5.50;99.90;-4.90;98335.00;;;;4988332;28;20848;-66
2022/12/18 09:02:34;;;;;;;5.60;4.07;;;-5.40;99.90;-4.40;98346.00;;;;4980657;28;20454;-66
2022/12/18 09:05:22;;;;;;;4.87;4.47;;;-5.20;99.90;-4.60;98343.00;;;;4985161;28;20474;-71
2022/12/18 09:08:11;;;;;;;8.10;4.90;;;-5.10;99.90;-4.40;98343.00;;;;4981011;28;20430;-69
2022/12/18 09:11:00;;;;;;;6.93;4.37;;;-4.90;99.90;-4.40;98357.00;;;;4984129;28;20474;-69
2022/12/18 09:13:51;;;;;;;8.03;4.77;;;-4.80;99.90;-4.50;98360.00;;;;4984229;28;20430;-69
2022/12/18 09:16:40;;;;;;;1.83;1.73;;;-4.80;99.90;-4.50;98359.00;;;;4983726;28;20435;-70
2022/12/18 09:19:29;;;;;;;5.50;3.97;;;-4.70;99.90;-4.20;98367.00;;;;4980207;28;20534;-69
2022/12/18 09:22:17;;;;;;;5.67;5.17;;;-4.70;99.90;-4.10;98362.00;;;;4977182;28;20483;-67
2022/12/18 09:25:07;;;;;;;4.60;4.20;;;-4.60;99.90;-3.90;98369.00;;;;4973546;28;20933;-67
2022/12/18 09:27:56;;;;;;;7.20;5.40;;;-4.50;99.90;-3.80;98376.00;;;;4982152;28;20442;-67
2022/12/18 09:30:49;;;;;;;9.07;5.60;;;-4.30;99.90;-3.80;98374.00;;;;4981772;28;20450;-70
2022/12/18 09:33:38;;;;;;;7.27;5.57;;;-4.10;99.90;-3.50;98370.00;;;;4980577;28;20444;-69
2022/12/18 09:36:34;;;;;;;6.07;4.97;;;-4.10;99.90;-3.30;98366.00;;;;4981336;28;20491;-69
2022/12/18 09:39:24;;;;;;;14.63;9.10;;;-4.00;99.90;-3.30;98363.00;;;;4983818;28;20532;-69
2022/12/18 09:42:21;;;;;;;10.70;8.50;;;-3.90;99.90;-2.90;98365.00;;;;4983556;28;20523;-69
2022/12/18 09:45:15;;;;;;;9.63;7.03;;;-3.70;99.90;-2.40;98367.00;;;;4999085;28;20438;-67
2022/12/18 09:48:06;;;;;;;11.67;5.97;;;-3.50;99.90;-2.30;98363.00;;;;4982316;28;20446;-67
2022/12/18 09:51:01;;;;;;;5.47;5.03;;;-3.30;99.90;-1.70;98371.00;;;;4982803;28;20519;-67
2022/12/18 09:53:57;;;;;;;7.43;5.17;;;-3.00;99.90;-1.40;98372.00;;;;4980660;28;20436;-66
2022/12/18 09:56:46;;;;;;;5.17;3.73;;;-2.70;99.90;-1.30;98375.00;;;;4986702;28;20548;-66
2022/12/18 09:59:39;;;;;;;7.77;5.77;;;-2.40;99.90;-0.80;98355.00;;;;4982039;28;20454;-66
2022/12/18 10:02:31;;;;;;;5.47;3.97;;;-2.10;99.90;-0.90;98351.00;;;;4987865;28;20422;-67
2022/12/18 10:05:32;;;;;;;5.90;4.57;;;-1.80;99.90;-1.20;98361.00;;;;4981756;28;20439;-66
2022/12/18 10:08:33;;;;;;;4.67;3.70;;;-1.80;99.90;-1.60;98345.00;;;;4976877;28;21022;-67
2022/12/18 10:11:39;;;;;;;8.60;6.63;;;-1.80;99.90;-1.50;98350.00;;;;4989194;28;20441;-66
2022/12/18 10:14:36;;;;;;;7.10;6.40;;;-1.90;99.90;-1.60;98342.00;;;;4982132;28;20521;-67
2022/12/18 10:17:36;;;;;;;3.33;3.03;;;-1.90;99.90;-1.50;98340.00;;;;4981488;28;20490;-68
2022/12/18 10:20:38;;;;;;;5.57;4.73;;;-1.90;99.90;-1.40;98344.00;;;;4990531;28;20493;-66
2022/12/18 10:23:34;;;;;;;9.30;6.20;;;-1.60;99.90;-0.40;98350.00;;;;4999389;28;20433;-65
2022/12/18 10:26:23;;;;;;;11.20;10.07;;;-0.80;99.90;0.20;98350.00;;;;4982987;28;20439;-65
2022/12/18 10:29:15;;;;;;;26.03;18.77;;;0.20;99.90;0.70;98361.00;;;;4980626;28;20519;-65
2022/12/18 10:32:04;;;;;;;13.90;9.20;;;1.10;99.90;1.40;98364.00;;;;4975434;28;20873;-65
2022/12/18 10:34:56;;;;;;;19.03;11.07;;;1.90;99.90;2.50;98371.00;;;;4981067;28;20495;-65
2022/12/18 10:38:22;;;;;;;16.87;9.57;;;2.90;99.90;3.20;98364.00;;;;4980483;28;20446;-65
2022/12/18 10:41:26;;;;;;;9.20;7.20;;;4.00;99.90;3.00;98369.00;;;;4979135;28;20449;-65
2022/12/18 10:44:20;;;;;;;8.97;6.60;;;4.80;99.90;3.80;98376.00;;;;4980662;28;20504;-65
2022/12/18 10:47:16;;;;;;;9.73;5.33;;;5.40;99.90;4.00;98383.00;;;;4981709;28;20438;-66
2022/12/18 10:50:06;;;;;;;8.03;5.53;;;5.80;97.50;4.10;98364.00;;;;4984970;28;20296;-65
2022/12/18 10:52:58;;;;;;;5.20;4.30;;;6.10;95.40;5.00;98362.00;;;;4990096;28;20222;-66
2022/12/18 10:55:48;;;;;;;8.53;6.00;;;6.50;94.90;4.90;98366.00;;;;5007743;28;20246;-66
2022/12/18 10:58:39;;;;;;;7.10;5.30;;;6.80;92.80;5.00;98355.00;;;;4986578;28;20221;-65
2022/12/18 11:01:29;;;;;;;7.73;5.23;;;7.10;91.40;5.40;98362.00;;;;4982023;28;20614;-65
2022/12/18 11:04:22;;;;;;;10.67;6.37;;;7.20;90.40;5.20;98364.00;;;;4982833;28;20202;-66
2022/12/18 11:07:11;;;;;;;7.63;5.17;;;7.40;88.30;4.90;98363.00;;;;4989367;28;20264;-66
2022/12/18 11:10:16;;;;;;;7.57;5.77;;;7.40;85.80;5.90;98372.00;;;;4981714;28;20350;-66
2022/12/18 11:13:17;;;;;;;7.90;5.93;;;7.40;85.40;5.70;98362.00;;;;4979561;28;20214;-66
2022/12/18 11:16:07;;;;;;;10.90;6.73;;;7.30;84.80;5.80;98359.00;;;;4981168;28;20750;-65
2022/12/18 11:18:56;;;;;;;12.07;6.17;;;7.30;84.80;6.30;98360.00;;;;4985413;28;20231;-66
2022/12/18 11:21:45;;;;;;;10.90;6.63;;;7.30;85.70;6.70;98359.00;;;;4975032;28;20690;-66
2022/12/18 11:24:36;;;;;;;10.50;7.43;;;7.60;86.00;6.40;98349.00;;;;5007860;28;20203;-65
2022/12/18 11:27:25;;;;;;;12.37;8.00;;;7.80;84.00;6.20;98341.00;;;;4980734;28;20686;-66
2022/12/18 11:30:25;;;;;;;14.07;7.77;;;7.90;82.00;6.80;98343.00;;;;4989349;28;20223;-66
2022/12/18 11:33:20;;;;;;;11.43;7.00;;;7.80;83.20;6.40;98348.00;;;;4983006;28;20203;-66
2022/12/18 11:36:11;;;;;;;8.87;7.43;;;7.90;82.30;6.30;98348.00;;;;4984004;28;20205;-66
2022/12/18 11:39:10;;;;;;;10.37;7.73;;;7.70;82.30;6.50;98348.00;;;;4996984;28;20192;-66
2022/12/18 11:42:10;;;;;;;13.03;7.53;;;7.70;82.60;6.70;98348.00;;;;4977341;28;20219;-65
2022/12/18 11:45:02;;;;;;;11.50;8.63;;;7.50;83.30;7.00;98335.00;;;;4982768;28;20210;-66
2022/12/18 11:48:00;;;;;;;9.37;6.70;;;7.50;85.10;5.90;98328.00;;;;4996342;28;20235;-65
2022/12/18 11:50:52;;;;;;;11.37;7.23;;;7.30;84.30;5.20;98318.00;;;;4993204;28;20231;-65
2022/12/18 11:53:41;;;;;;;10.10;6.87;;;6.90;84.70;4.80;98320.00;;;;4984414;28;20234;-65
2022/12/18 11:56:34;;;;;;;10.63;8.27;;;6.60;86.10;5.70;98323.00;;;;5016101;28;20597;-65
2022/12/18 11:59:33;;;;;;;12.03;8.73;;;6.40;87.50;6.30;98320.00;;;;4983671;28;20230;-65
2022/12/18 12:02:44;;;;;;;14.13;9.67;;;6.30;88.30;5.80;98314.00;;;;4980656;28;20290;-66
2022/12/18 12:05:52;;;;;;;14.17;9.97;;;6.20;88.80;6.10;98335.00;;;;4990023;28;20209;-66
2022/12/18 12:08:58;;;;;;;18.73;13.67;;;6.10;89.90;6.70;98329.00;;;;4988809;28;20307;-65
2022/12/18 12:12:03;;;;;;;15.77;10.20;;;6.20;90.70;6.20;98314.00;;;;4987754;28;20226;-66
2022/12/18 12:15:03;;;;;;;17.53;13.50;;;6.30;89.60;5.40;98357.00;;;;4986415;28;20207;-64
2022/12/18 12:17:57;;;;;;;15.00;10.50;;;6.00;89.40;4.30;98367.00;;;;4989016;28;20214;-67
2022/12/18 12:20:57;;;;;;;13.90;11.30;;;5.30;90.10;4.00;98349.00;;;;4980600;28;20222;-66
2022/12/18 12:23:54;;;;;;;15.70;10.93;;;4.50;91.50;3.50;98339.00;;;;4988663;28;20630;-65
2022/12/18 12:26:53;;;;;;;13.43;10.40;;;3.80;92.70;3.20;98347.00;;;;4985350;28;20746;-66
2022/12/18 12:29:54;;;;;;;16.73;10.77;;;3.40;94.10;2.70;98346.00;;;;4979461;28;20226;-66
2022/12/18 12:33:08;;;;;;;16.57;10.07;;;2.90;94.60;2.20;98343.00;;;;4988592;28;20214;-67
2022/12/18 12:36:08;;;;;;;12.70;9.83;;;2.60;95.40;2.50;98337.00;;;;4985224;28;20238;-66
2022/12/18 12:39:02;;;;;;;16.07;10.57;;;2.30;96.90;2.70;98344.00;;;;4979174;28;20678;-66
2022/12/18 12:45:00;;;;;;;15.70;10.03;;;1.90;99.00;2.00;98341.00;;;;4983510;28;20292;-67
2022/12/18 12:47:51;;;;;;;15.53;10.23;;;1.60;99.90;2.10;98347.00;;;;4980176;28;21102;-66
2022/12/18 12:50:41;;;;;;;18.27;11.10;;;1.50;99.90;2.40;98346.00;;;;4979881;28;20512;-67